Tsimlyansk, Russia
Current Conditions -  °F | °C
As of 2:00 PM on Sunday 23 Nov 2014 (Local Time) from URRR Reporting Station
Clear Clear  
Wind Chill: 28°   Ceiling: Unl
Heat Index: 34°   Visibility: 6mi
Dew Point: 21°   Wind: 7mph
Humidity: 60%   Direction: 40°NE
Pressure: 30.33"   Gusts: NA
Location:  47.65°N, 42.1°E
Report Text: URRR 231100Z 04003MPS 350V070 CAVOK 01/M06 Q1027 04CLRD70NOSIG
Loading
Personal Weather Stations






























Interactive Weather Map New forecast layout! Learn more

10-Day Weather Forecast

Advertisements
Track Severe Weather on mobile